sensor_id;sensor_type;location;lat;lon;timestamp;P1;durP1;ratioP1;P2;durP2;ratioP2
44766;SDS011;30487;48.716;9.272;2024-01-16T00:02:22;7.35;;;3.63;;
44766;SDS011;30487;48.716;9.272;2024-01-16T00:04:47;8.55;;;3.50;;
44766;SDS011;30487;48.716;9.272;2024-01-16T00:07:13;7.32;;;3.50;;
44766;SDS011;30487;48.716;9.272;2024-01-16T00:09:39;8.88;;;3.83;;
44766;SDS011;30487;48.716;9.272;2024-01-16T00:12:04;9.80;;;3.65;;
44766;SDS011;30487;48.716;9.272;2024-01-16T00:14:30;9.48;;;3.60;;
44766;SDS011;30487;48.716;9.272;2024-01-16T00:16:59;8.40;;;3.58;;
44766;SDS011;30487;48.716;9.272;2024-01-16T00:19:24;7.55;;;3.83;;
44766;SDS011;30487;48.716;9.272;2024-01-16T00:21:50;7.95;;;3.55;;
44766;SDS011;30487;48.716;9.272;2024-01-16T00:24:16;7.75;;;3.25;;
44766;SDS011;30487;48.716;9.272;2024-01-16T00:26:42;9.52;;;3.75;;
44766;SDS011;30487;48.716;9.272;2024-01-16T00:29:08;8.02;;;3.60;;
44766;SDS011;30487;48.716;9.272;2024-01-16T00:31:37;8.82;;;3.38;;
44766;SDS011;30487;48.716;9.272;2024-01-16T00:34:04;6.65;;;3.50;;
44766;SDS011;30487;48.716;9.272;2024-01-16T00:36:29;6.28;;;3.47;;
44766;SDS011;30487;48.716;9.272;2024-01-16T00:38:55;7.82;;;3.70;;
44766;SDS011;30487;48.716;9.272;2024-01-16T00:41:21;9.00;;;3.83;;
44766;SDS011;30487;48.716;9.272;2024-01-16T00:43:47;10.65;;;3.90;;
44766;SDS011;30487;48.716;9.272;2024-01-16T00:46:12;7.00;;;3.33;;
44766;SDS011;30487;48.716;9.272;2024-01-16T00:48:38;7.95;;;3.50;;
44766;SDS011;30487;48.716;9.272;2024-01-16T00:51:04;8.15;;;3.60;;
44766;SDS011;30487;48.716;9.272;2024-01-16T00:53:30;8.70;;;3.17;;
44766;SDS011;30487;48.716;9.272;2024-01-16T00:55:55;7.90;;;3.55;;
44766;SDS011;30487;48.716;9.272;2024-01-16T00:58:24;10.10;;;3.80;;
44766;SDS011;30487;48.716;9.272;2024-01-16T01:00:49;10.38;;;3.78;;
44766;SDS011;30487;48.716;9.272;2024-01-16T01:03:15;8.75;;;3.20;;
44766;SDS011;30487;48.716;9.272;2024-01-16T01:05:41;6.53;;;3.42;;
44766;SDS011;30487;48.716;9.272;2024-01-16T01:08:06;9.10;;;3.85;;
44766;SDS011;30487;48.716;9.272;2024-01-16T01:10:32;8.95;;;3.30;;
44766;SDS011;30487;48.716;9.272;2024-01-16T01:12:58;7.88;;;3.65;;
44766;SDS011;30487;48.716;9.272;2024-01-16T01:15:23;7.72;;;3.35;;
44766;SDS011;30487;48.716;9.272;2024-01-16T01:17:49;8.68;;;3.47;;
44766;SDS011;30487;48.716;9.272;2024-01-16T01:20:15;9.30;;;3.30;;
44766;SDS011;30487;48.716;9.272;2024-01-16T01:22:43;8.02;;;3.75;;
44766;SDS011;30487;48.716;9.272;2024-01-16T01:25:09;7.05;;;3.30;;
44766;SDS011;30487;48.716;9.272;2024-01-16T01:27:35;7.57;;;3.55;;
44766;SDS011;30487;48.716;9.272;2024-01-16T01:30:01;7.70;;;3.53;;
44766;SDS011;30487;48.716;9.272;2024-01-16T01:32:27;5.90;;;3.00;;
44766;SDS011;30487;48.716;9.272;2024-01-16T01:34:52;6.38;;;3.25;;
44766;SDS011;30487;48.716;9.272;2024-01-16T01:37:18;7.85;;;3.30;;
44766;SDS011;30487;48.716;9.272;2024-01-16T01:39:44;7.68;;;3.58;;
44766;SDS011;30487;48.716;9.272;2024-01-16T01:42:09;7.00;;;3.28;;
44766;SDS011;30487;48.716;9.272;2024-01-16T01:44:35;7.57;;;3.63;;
44766;SDS011;30487;48.716;9.272;2024-01-16T01:47:00;6.80;;;3.28;;
44766;SDS011;30487;48.716;9.272;2024-01-16T01:49:27;7.60;;;3.10;;
44766;SDS011;30487;48.716;9.272;2024-01-16T01:51:52;8.07;;;3.00;;
44766;SDS011;30487;48.716;9.272;2024-01-16T01:54:19;6.90;;;3.20;;
44766;SDS011;30487;48.716;9.272;2024-01-16T01:56:46;9.32;;;3.60;;
44766;SDS011;30487;48.716;9.272;2024-01-16T01:59:14;9.02;;;3.65;;
44766;SDS011;30487;48.716;9.272;2024-01-16T02:01:43;7.18;;;3.25;;
44766;SDS011;30487;48.716;9.272;2024-01-16T02:04:10;6.78;;;2.97;;
44766;SDS011;30487;48.716;9.272;2024-01-16T02:06:39;7.38;;;3.22;;
44766;SDS011;30487;48.716;9.272;2024-01-16T02:09:04;8.23;;;3.22;;
44766;SDS011;30487;48.716;9.272;2024-01-16T02:11:32;6.32;;;3.22;;
44766;SDS011;30487;48.716;9.272;2024-01-16T02:13:57;7.75;;;3.30;;
44766;SDS011;30487;48.716;9.272;2024-01-16T02:16:23;8.50;;;3.40;;
44766;SDS011;30487;48.716;9.272;2024-01-16T02:18:50;7.97;;;3.20;;
44766;SDS011;30487;48.716;9.272;2024-01-16T02:21:27;8.88;;;3.00;;
44766;SDS011;30487;48.716;9.272;2024-01-16T02:23:56;6.95;;;2.90;;
44766;SDS011;30487;48.716;9.272;2024-01-16T02:26:21;9.07;;;3.47;;
44766;SDS011;30487;48.716;9.272;2024-01-16T02:28:47;7.20;;;3.10;;
44766;SDS011;30487;48.716;9.272;2024-01-16T02:31:13;8.88;;;3.13;;
44766;SDS011;30487;48.716;9.272;2024-01-16T02:33:39;6.55;;;3.20;;
44766;SDS011;30487;48.716;9.272;2024-01-16T02:36:04;7.38;;;3.10;;
44766;SDS011;30487;48.716;9.272;2024-01-16T02:38:30;7.63;;;3.42;;
44766;SDS011;30487;48.716;9.272;2024-01-16T02:40:56;9.05;;;3.13;;
44766;SDS011;30487;48.716;9.272;2024-01-16T02:43:21;6.38;;;3.03;;
44766;SDS011;30487;48.716;9.272;2024-01-16T02:45:47;9.65;;;3.17;;
44766;SDS011;30487;48.716;9.272;2024-01-16T02:48:13;8.45;;;3.55;;
44766;SDS011;30487;48.716;9.272;2024-01-16T02:50:39;7.57;;;2.90;;
44766;SDS011;30487;48.716;9.272;2024-01-16T02:53:04;10.15;;;3.13;;
44766;SDS011;30487;48.716;9.272;2024-01-16T02:55:30;7.10;;;3.20;;
44766;SDS011;30487;48.716;9.272;2024-01-16T02:57:55;7.70;;;3.10;;
44766;SDS011;30487;48.716;9.272;2024-01-16T03:00:21;8.00;;;3.17;;
44766;SDS011;30487;48.716;9.272;2024-01-16T03:02:47;5.53;;;2.90;;
44766;SDS011;30487;48.716;9.272;2024-01-16T03:05:13;7.13;;;3.17;;
44766;SDS011;30487;48.716;9.272;2024-01-16T03:07:39;7.97;;;2.90;;
44766;SDS011;30487;48.716;9.272;2024-01-16T03:10:06;8.85;;;3.13;;
44766;SDS011;30487;48.716;9.272;2024-01-16T03:12:32;7.72;;;2.97;;
44766;SDS011;30487;48.716;9.272;2024-01-16T03:14:57;6.82;;;3.00;;
44766;SDS011;30487;48.716;9.272;2024-01-16T03:17:23;9.85;;;2.90;;
44766;SDS011;30487;48.716;9.272;2024-01-16T03:19:48;6.88;;;2.95;;
44766;SDS011;30487;48.716;9.272;2024-01-16T03:22:14;9.48;;;3.20;;
44766;SDS011;30487;48.716;9.272;2024-01-16T03:24:40;7.60;;;3.40;;
44766;SDS011;30487;48.716;9.272;2024-01-16T03:27:05;7.40;;;3.17;;
44766;SDS011;30487;48.716;9.272;2024-01-16T03:29:31;6.82;;;2.72;;
44766;SDS011;30487;48.716;9.272;2024-01-16T03:31:58;6.95;;;3.05;;
44766;SDS011;30487;48.716;9.272;2024-01-16T03:34:24;6.15;;;2.72;;
44766;SDS011;30487;48.716;9.272;2024-01-16T03:36:50;7.85;;;3.40;;
44766;SDS011;30487;48.716;9.272;2024-01-16T03:39:15;7.32;;;2.92;;
44766;SDS011;30487;48.716;9.272;2024-01-16T03:41:41;7.13;;;3.17;;
44766;SDS011;30487;48.716;9.272;2024-01-16T03:44:06;7.80;;;3.08;;
44766;SDS011;30487;48.716;9.272;2024-01-16T03:46:32;6.10;;;2.75;;
44766;SDS011;30487;48.716;9.272;2024-01-16T03:48:57;5.63;;;2.80;;
44766;SDS011;30487;48.716;9.272;2024-01-16T03:51:23;7.15;;;2.80;;
44766;SDS011;30487;48.716;9.272;2024-01-16T03:53:49;7.05;;;2.90;;
44766;SDS011;30487;48.716;9.272;2024-01-16T03:56:15;6.43;;;2.83;;
44766;SDS011;30487;48.716;9.272;2024-01-16T03:58:41;8.18;;;3.35;;
44766;SDS011;30487;48.716;9.272;2024-01-16T04:01:07;7.15;;;3.38;;
44766;SDS011;30487;48.716;9.272;2024-01-16T04:03:33;6.10;;;2.95;;
44766;SDS011;30487;48.716;9.272;2024-01-16T04:06:00;6.40;;;2.83;;
44766;SDS011;30487;48.716;9.272;2024-01-16T04:08:25;7.28;;;3.10;;
44766;SDS011;30487;48.716;9.272;2024-01-16T04:10:51;7.45;;;3.20;;
44766;SDS011;30487;48.716;9.272;2024-01-16T04:13:16;6.47;;;2.67;;
44766;SDS011;30487;48.716;9.272;2024-01-16T04:15:43;8.55;;;2.72;;
44766;SDS011;30487;48.716;9.272;2024-01-16T04:18:08;8.52;;;2.95;;
44766;SDS011;30487;48.716;9.272;2024-01-16T04:20:34;6.38;;;2.75;;
44766;SDS011;30487;48.716;9.272;2024-01-16T04:23:00;6.90;;;2.83;;
44766;SDS011;30487;48.716;9.272;2024-01-16T04:25:25;7.43;;;3.03;;
44766;SDS011;30487;48.716;9.272;2024-01-16T04:27:51;7.00;;;2.90;;
44766;SDS011;30487;48.716;9.272;2024-01-16T04:30:16;6.22;;;2.80;;
44766;SDS011;30487;48.716;9.272;2024-01-16T04:32:42;6.72;;;2.88;;
44766;SDS011;30487;48.716;9.272;2024-01-16T04:35:07;8.25;;;3.17;;
44766;SDS011;30487;48.716;9.272;2024-01-16T04:37:33;6.82;;;3.00;;
44766;SDS011;30487;48.716;9.272;2024-01-16T04:39:59;5.50;;;2.92;;
44766;SDS011;30487;48.716;9.272;2024-01-16T04:42:25;7.75;;;2.83;;
44766;SDS011;30487;48.716;9.272;2024-01-16T04:44:51;7.05;;;2.80;;
44766;SDS011;30487;48.716;9.272;2024-01-16T04:47:16;7.88;;;3.17;;
44766;SDS011;30487;48.716;9.272;2024-01-16T04:49:42;7.30;;;2.63;;
44766;SDS011;30487;48.716;9.272;2024-01-16T04:52:08;6.80;;;3.10;;
44766;SDS011;30487;48.716;9.272;2024-01-16T04:54:33;6.47;;;2.72;;
44766;SDS011;30487;48.716;9.272;2024-01-16T04:56:59;7.07;;;3.03;;
44766;SDS011;30487;48.716;9.272;2024-01-16T04:59:25;7.63;;;3.10;;
44766;SDS011;30487;48.716;9.272;2024-01-16T05:01:50;7.88;;;3.15;;
44766;SDS011;30487;48.716;9.272;2024-01-16T05:04:16;7.47;;;2.92;;
44766;SDS011;30487;48.716;9.272;2024-01-16T05:06:42;7.75;;;3.20;;
44766;SDS011;30487;48.716;9.272;2024-01-16T05:09:07;7.68;;;3.20;;
44766;SDS011;30487;48.716;9.272;2024-01-16T05:11:34;6.43;;;2.67;;
44766;SDS011;30487;48.716;9.272;2024-01-16T05:14:00;6.55;;;2.90;;
44766;SDS011;30487;48.716;9.272;2024-01-16T05:16:26;7.72;;;3.42;;
44766;SDS011;30487;48.716;9.272;2024-01-16T05:18:52;7.45;;;3.25;;
44766;SDS011;30487;48.716;9.272;2024-01-16T05:21:18;7.28;;;2.80;;
44766;SDS011;30487;48.716;9.272;2024-01-16T05:23:45;7.75;;;3.10;;
44766;SDS011;30487;48.716;9.272;2024-01-16T05:26:10;7.00;;;2.78;;
44766;SDS011;30487;48.716;9.272;2024-01-16T05:28:36;6.63;;;2.83;;
44766;SDS011;30487;48.716;9.272;2024-01-16T05:31:03;9.43;;;2.85;;
44766;SDS011;30487;48.716;9.272;2024-01-16T05:33:29;5.80;;;2.88;;
44766;SDS011;30487;48.716;9.272;2024-01-16T05:35:56;7.57;;;3.03;;
44766;SDS011;30487;48.716;9.272;2024-01-16T05:38:22;8.43;;;3.00;;
44766;SDS011;30487;48.716;9.272;2024-01-16T05:40:48;7.53;;;3.03;;
44766;SDS011;30487;48.716;9.272;2024-01-16T05:43:13;6.32;;;2.65;;
44766;SDS011;30487;48.716;9.272;2024-01-16T05:45:39;8.98;;;3.28;;
44766;SDS011;30487;48.716;9.272;2024-01-16T05:48:05;6.22;;;2.80;;
44766;SDS011;30487;48.716;9.272;2024-01-16T05:50:32;7.03;;;3.00;;
44766;SDS011;30487;48.716;9.272;2024-01-16T05:52:59;8.00;;;3.30;;
44766;SDS011;30487;48.716;9.272;2024-01-16T05:55:24;6.72;;;3.33;;
44766;SDS011;30487;48.716;9.272;2024-01-16T05:57:50;7.18;;;3.25;;
44766;SDS011;30487;48.716;9.272;2024-01-16T06:00:15;8.50;;;2.78;;
44766;SDS011;30487;48.716;9.272;2024-01-16T06:02:43;5.82;;;3.03;;
44766;SDS011;30487;48.716;9.272;2024-01-16T06:05:09;6.90;;;3.03;;
44766;SDS011;30487;48.716;9.272;2024-01-16T06:07:34;8.27;;;3.22;;
44766;SDS011;30487;48.716;9.272;2024-01-16T06:10:00;9.00;;;3.30;;
44766;SDS011;30487;48.716;9.272;2024-01-16T06:12:25;10.50;;;3.22;;
44766;SDS011;30487;48.716;9.272;2024-01-16T06:14:51;8.68;;;3.40;;
44766;SDS011;30487;48.716;9.272;2024-01-16T06:17:17;6.60;;;3.33;;
44766;SDS011;30487;48.716;9.272;2024-01-16T06:19:42;6.95;;;3.08;;
44766;SDS011;30487;48.716;9.272;2024-01-16T06:22:08;6.30;;;3.15;;
44766;SDS011;30487;48.716;9.272;2024-01-16T06:24:33;5.47;;;2.58;;
44766;SDS011;30487;48.716;9.272;2024-01-16T06:27:02;7.45;;;3.10;;
44766;SDS011;30487;48.716;9.272;2024-01-16T06:29:29;7.82;;;3.00;;
44766;SDS011;30487;48.716;9.272;2024-01-16T06:31:55;7.55;;;2.83;;
44766;SDS011;30487;48.716;9.272;2024-01-16T06:34:20;9.02;;;2.75;;
44766;SDS011;30487;48.716;9.272;2024-01-16T06:36:46;6.18;;;2.88;;
44766;SDS011;30487;48.716;9.272;2024-01-16T06:39:11;7.63;;;3.28;;
44766;SDS011;30487;48.716;9.272;2024-01-16T06:41:39;8.23;;;3.00;;
44766;SDS011;30487;48.716;9.272;2024-01-16T06:44:07;6.70;;;3.03;;
44766;SDS011;30487;48.716;9.272;2024-01-16T06:46:33;6.68;;;3.20;;
44766;SDS011;30487;48.716;9.272;2024-01-16T06:48:59;8.90;;;2.85;;
44766;SDS011;30487;48.716;9.272;2024-01-16T06:51:25;7.00;;;2.85;;
44766;SDS011;30487;48.716;9.272;2024-01-16T06:53:52;8.85;;;3.00;;
44766;SDS011;30487;48.716;9.272;2024-01-16T06:56:18;5.18;;;2.30;;
44766;SDS011;30487;48.716;9.272;2024-01-16T06:58:43;8.15;;;2.85;;
44766;SDS011;30487;48.716;9.272;2024-01-16T07:01:09;6.75;;;2.60;;
44766;SDS011;30487;48.716;9.272;2024-01-16T07:03:35;4.78;;;2.50;;
44766;SDS011;30487;48.716;9.272;2024-01-16T07:06:01;7.22;;;2.92;;
44766;SDS011;30487;48.716;9.272;2024-01-16T07:08:27;8.10;;;2.30;;
44766;SDS011;30487;48.716;9.272;2024-01-16T07:10:53;5.25;;;2.63;;
44766;SDS011;30487;48.716;9.272;2024-01-16T07:13:18;5.72;;;2.55;;
44766;SDS011;30487;48.716;9.272;2024-01-16T07:15:44;4.55;;;2.40;;
44766;SDS011;30487;48.716;9.272;2024-01-16T07:18:10;5.15;;;2.63;;
44766;SDS011;30487;48.716;9.272;2024-01-16T07:20:35;4.70;;;2.40;;
44766;SDS011;30487;48.716;9.272;2024-01-16T07:23:01;7.18;;;2.80;;
44766;SDS011;30487;48.716;9.272;2024-01-16T07:25:27;6.25;;;2.40;;
44766;SDS011;30487;48.716;9.272;2024-01-16T07:27:53;4.95;;;2.30;;
44766;SDS011;30487;48.716;9.272;2024-01-16T07:30:18;5.43;;;2.28;;
44766;SDS011;30487;48.716;9.272;2024-01-16T07:32:44;4.65;;;2.35;;
44766;SDS011;30487;48.716;9.272;2024-01-16T07:35:10;8.60;;;2.70;;
44766;SDS011;30487;48.716;9.272;2024-01-16T07:37:35;5.53;;;2.58;;
44766;SDS011;30487;48.716;9.272;2024-01-16T07:40:01;6.22;;;2.35;;
44766;SDS011;30487;48.716;9.272;2024-01-16T07:42:26;5.93;;;2.38;;
44766;SDS011;30487;48.716;9.272;2024-01-16T07:44:58;6.40;;;2.38;;
44766;SDS011;30487;48.716;9.272;2024-01-16T07:47:25;6.35;;;2.92;;
44766;SDS011;30487;48.716;9.272;2024-01-16T07:49:51;5.95;;;2.10;;
44766;SDS011;30487;48.716;9.272;2024-01-16T07:52:16;5.03;;;2.40;;
44766;SDS011;30487;48.716;9.272;2024-01-16T07:54:42;8.18;;;2.60;;
44766;SDS011;30487;48.716;9.272;2024-01-16T07:57:07;6.38;;;2.55;;
44766;SDS011;30487;48.716;9.272;2024-01-16T07:59:33;6.20;;;2.72;;
44766;SDS011;30487;48.716;9.272;2024-01-16T08:01:58;4.50;;;2.20;;
44766;SDS011;30487;48.716;9.272;2024-01-16T08:04:24;6.55;;;2.63;;
44766;SDS011;30487;48.716;9.272;2024-01-16T08:06:49;5.88;;;2.67;;
44766;SDS011;30487;48.716;9.272;2024-01-16T08:09:15;7.75;;;2.47;;
44766;SDS011;30487;48.716;9.272;2024-01-16T08:11:41;7.55;;;2.03;;
44766;SDS011;30487;48.716;9.272;2024-01-16T08:14:06;7.53;;;2.70;;
44766;SDS011;30487;48.716;9.272;2024-01-16T08:16:32;4.65;;;2.40;;
44766;SDS011;30487;48.716;9.272;2024-01-16T08:18:57;6.75;;;2.75;;
44766;SDS011;30487;48.716;9.272;2024-01-16T08:21:23;6.68;;;2.53;;
44766;SDS011;30487;48.716;9.272;2024-01-16T08:23:48;7.00;;;2.53;;
44766;SDS011;30487;48.716;9.272;2024-01-16T08:26:14;6.40;;;2.65;;
44766;SDS011;30487;48.716;9.272;2024-01-16T08:28:40;7.45;;;2.80;;
44766;SDS011;30487;48.716;9.272;2024-01-16T08:31:06;7.40;;;2.95;;
44766;SDS011;30487;48.716;9.272;2024-01-16T08:33:31;7.60;;;3.08;;
44766;SDS011;30487;48.716;9.272;2024-01-16T08:35:57;9.70;;;2.60;;
44766;SDS011;30487;48.716;9.272;2024-01-16T08:38:22;7.15;;;2.63;;
44766;SDS011;30487;48.716;9.272;2024-01-16T08:41:02;9.00;;;2.97;;
44766;SDS011;30487;48.716;9.272;2024-01-16T08:43:31;6.63;;;2.53;;
44766;SDS011;30487;48.716;9.272;2024-01-16T08:45:58;6.10;;;2.72;;
44766;SDS011;30487;48.716;9.272;2024-01-16T08:48:23;9.77;;;2.75;;
44766;SDS011;30487;48.716;9.272;2024-01-16T08:50:49;9.45;;;2.80;;
44766;SDS011;30487;48.716;9.272;2024-01-16T08:53:15;7.82;;;2.78;;
44766;SDS011;30487;48.716;9.272;2024-01-16T08:55:40;4.82;;;2.40;;
44766;SDS011;30487;48.716;9.272;2024-01-16T08:58:06;14.45;;;3.00;;
44766;SDS011;30487;48.716;9.272;2024-01-16T09:00:31;7.45;;;2.92;;
44766;SDS011;30487;48.716;9.272;2024-01-16T09:02:58;7.15;;;2.85;;
44766;SDS011;30487;48.716;9.272;2024-01-16T09:05:23;5.65;;;2.35;;
44766;SDS011;30487;48.716;9.272;2024-01-16T09:07:50;8.65;;;2.95;;
44766;SDS011;30487;48.716;9.272;2024-01-16T09:10:17;7.18;;;3.35;;
44766;SDS011;30487;48.716;9.272;2024-01-16T09:12:43;6.80;;;2.63;;
44766;SDS011;30487;48.716;9.272;2024-01-16T09:15:09;6.47;;;3.05;;
44766;SDS011;30487;48.716;9.272;2024-01-16T09:17:35;6.10;;;3.00;;
44766;SDS011;30487;48.716;9.272;2024-01-16T09:20:00;9.05;;;2.80;;
44766;SDS011;30487;48.716;9.272;2024-01-16T09:22:26;7.70;;;3.05;;
44766;SDS011;30487;48.716;9.272;2024-01-16T09:24:52;7.40;;;2.88;;
44766;SDS011;30487;48.716;9.272;2024-01-16T09:27:17;7.90;;;3.03;;
44766;SDS011;30487;48.716;9.272;2024-01-16T09:29:43;6.55;;;2.65;;
44766;SDS011;30487;48.716;9.272;2024-01-16T09:32:08;5.70;;;2.40;;
44766;SDS011;30487;48.716;9.272;2024-01-16T09:34:34;7.25;;;2.67;;
44766;SDS011;30487;48.716;9.272;2024-01-16T09:37:00;5.32;;;2.60;;
44766;SDS011;30487;48.716;9.272;2024-01-16T09:39:27;5.90;;;2.88;;
44766;SDS011;30487;48.716;9.272;2024-01-16T09:41:55;8.10;;;2.83;;
44766;SDS011;30487;48.716;9.272;2024-01-16T09:44:24;5.90;;;2.42;;
44766;SDS011;30487;48.716;9.272;2024-01-16T09:46:50;7.13;;;2.75;;
44766;SDS011;30487;48.716;9.272;2024-01-16T09:49:17;7.68;;;2.40;;
44766;SDS011;30487;48.716;9.272;2024-01-16T09:51:43;7.72;;;2.53;;
44766;SDS011;30487;48.716;9.272;2024-01-16T09:54:09;5.30;;;2.40;;
44766;SDS011;30487;48.716;9.272;2024-01-16T09:56:35;6.68;;;2.30;;
44766;SDS011;30487;48.716;9.272;2024-01-16T09:59:10;7.43;;;2.70;;
44766;SDS011;30487;48.716;9.272;2024-01-16T10:01:39;6.72;;;2.38;;
44766;SDS011;30487;48.716;9.272;2024-01-16T10:04:06;5.72;;;2.38;;
44766;SDS011;30487;48.716;9.272;2024-01-16T10:06:31;4.65;;;2.22;;
44766;SDS011;30487;48.716;9.272;2024-01-16T10:08:58;8.98;;;2.40;;
44766;SDS011;30487;48.716;9.272;2024-01-16T10:11:24;6.97;;;2.38;;
44766;SDS011;30487;48.716;9.272;2024-01-16T10:13:50;10.32;;;2.50;;
44766;SDS011;30487;48.716;9.272;2024-01-16T10:16:16;5.90;;;2.17;;
44766;SDS011;30487;48.716;9.272;2024-01-16T10:18:41;4.70;;;2.15;;
44766;SDS011;30487;48.716;9.272;2024-01-16T10:21:21;7.40;;;2.20;;
44766;SDS011;30487;48.716;9.272;2024-01-16T10:23:47;5.38;;;2.33;;
44766;SDS011;30487;48.716;9.272;2024-01-16T10:26:12;6.78;;;2.13;;
44766;SDS011;30487;48.716;9.272;2024-01-16T10:28:39;4.57;;;2.15;;
44766;SDS011;30487;48.716;9.272;2024-01-16T10:31:10;6.80;;;2.40;;
44766;SDS011;30487;48.716;9.272;2024-01-16T10:33:37;5.80;;;2.30;;
44766;SDS011;30487;48.716;9.272;2024-01-16T10:36:07;6.07;;;2.00;;
44766;SDS011;30487;48.716;9.272;2024-01-16T10:38:45;4.95;;;2.40;;
44766;SDS011;30487;48.716;9.272;2024-01-16T10:43:36;4.82;;;2.17;;
44766;SDS011;30487;48.716;9.272;2024-01-16T10:46:09;5.25;;;2.17;;
44766;SDS011;30487;48.716;9.272;2024-01-16T10:48:37;9.00;;;2.35;;
44766;SDS011;30487;48.716;9.272;2024-01-16T10:51:05;6.22;;;2.40;;
44766;SDS011;30487;48.716;9.272;2024-01-16T10:53:32;5.47;;;2.55;;
44766;SDS011;30487;48.716;9.272;2024-01-16T10:55:59;4.80;;;1.83;;
44766;SDS011;30487;48.716;9.272;2024-01-16T10:58:26;4.38;;;2.47;;
44766;SDS011;30487;48.716;9.272;2024-01-16T11:00:56;7.13;;;2.45;;
44766;SDS011;30487;48.716;9.272;2024-01-16T11:03:38;6.22;;;2.20;;
44766;SDS011;30487;48.716;9.272;2024-01-16T11:06:12;4.53;;;2.13;;
44766;SDS011;30487;48.716;9.272;2024-01-16T11:08:40;5.25;;;2.25;;
44766;SDS011;30487;48.716;9.272;2024-01-16T11:11:07;7.35;;;2.28;;
44766;SDS011;30487;48.716;9.272;2024-01-16T11:13:34;5.60;;;2.47;;
44766;SDS011;30487;48.716;9.272;2024-01-16T11:16:00;5.03;;;2.10;;
44766;SDS011;30487;48.716;9.272;2024-01-16T11:18:29;5.20;;;2.30;;
44766;SDS011;30487;48.716;9.272;2024-01-16T11:20:57;5.47;;;2.30;;
44766;SDS011;30487;48.716;9.272;2024-01-16T11:23:24;4.53;;;2.30;;
44766;SDS011;30487;48.716;9.272;2024-01-16T11:25:50;6.68;;;2.80;;
44766;SDS011;30487;48.716;9.272;2024-01-16T11:28:15;5.18;;;2.60;;
44766;SDS011;30487;48.716;9.272;2024-01-16T11:30:42;7.00;;;2.47;;
44766;SDS011;30487;48.716;9.272;2024-01-16T11:35:56;4.78;;;2.50;;
44766;SDS011;30487;48.716;9.272;2024-01-16T11:38:21;9.60;;;3.65;;
44766;SDS011;30487;48.716;9.272;2024-01-16T11:40:51;12.02;;;5.13;;
44766;SDS011;30487;48.716;9.272;2024-01-16T11:45:58;9.05;;;4.93;;
44766;SDS011;30487;48.716;9.272;2024-01-16T11:48:32;9.20;;;4.00;;
44766;SDS011;30487;48.716;9.272;2024-01-16T11:50:58;8.05;;;3.30;;
44766;SDS011;30487;48.716;9.272;2024-01-16T11:59:26;6.32;;;2.70;;
44766;SDS011;30487;48.716;9.272;2024-01-16T12:01:57;4.60;;;2.08;;
44766;SDS011;30487;48.716;9.272;2024-01-16T12:04:23;4.95;;;2.42;;
44766;SDS011;30487;48.716;9.272;2024-01-16T12:06:58;4.65;;;2.42;;
44766;SDS011;30487;48.716;9.272;2024-01-16T12:09:27;5.50;;;2.58;;
44766;SDS011;30487;48.716;9.272;2024-01-16T12:11:57;8.30;;;2.67;;
44766;SDS011;30487;48.716;9.272;2024-01-16T12:14:24;5.90;;;2.40;;
44766;SDS011;30487;48.716;9.272;2024-01-16T12:16:49;3.97;;;2.30;;
44766;SDS011;30487;48.716;9.272;2024-01-16T12:19:15;7.30;;;2.40;;
44766;SDS011;30487;48.716;9.272;2024-01-16T12:21:42;5.75;;;2.17;;
44766;SDS011;30487;48.716;9.272;2024-01-16T12:24:09;4.32;;;2.20;;
44766;SDS011;30487;48.716;9.272;2024-01-16T12:26:35;3.58;;;2.00;;
44766;SDS011;30487;48.716;9.272;2024-01-16T12:29:02;3.75;;;2.00;;
44766;SDS011;30487;48.716;9.272;2024-01-16T12:31:27;5.50;;;2.20;;
44766;SDS011;30487;48.716;9.272;2024-01-16T12:34:02;6.53;;;2.20;;
44766;SDS011;30487;48.716;9.272;2024-01-16T12:36:30;5.88;;;2.40;;
44766;SDS011;30487;48.716;9.272;2024-01-16T12:38:56;4.18;;;2.10;;
44766;SDS011;30487;48.716;9.272;2024-01-16T12:41:21;5.65;;;2.20;;
44766;SDS011;30487;48.716;9.272;2024-01-16T12:43:49;5.10;;;1.98;;
44766;SDS011;30487;48.716;9.272;2024-01-16T12:46:17;4.05;;;1.40;;
44766;SDS011;30487;48.716;9.272;2024-01-16T12:48:44;2.88;;;1.60;;
44766;SDS011;30487;48.716;9.272;2024-01-16T12:51:12;3.70;;;1.65;;
44766;SDS011;30487;48.716;9.272;2024-01-16T12:53:44;3.38;;;1.40;;
44766;SDS011;30487;48.716;9.272;2024-01-16T12:56:10;3.30;;;1.50;;
44766;SDS011;30487;48.716;9.272;2024-01-16T12:58:37;2.58;;;1.15;;
44766;SDS011;30487;48.716;9.272;2024-01-16T13:01:22;3.10;;;1.10;;
44766;SDS011;30487;48.716;9.272;2024-01-16T13:03:52;4.53;;;1.08;;
44766;SDS011;30487;48.716;9.272;2024-01-16T13:06:18;2.75;;;1.13;;
44766;SDS011;30487;48.716;9.272;2024-01-16T13:08:50;2.60;;;1.02;;
44766;SDS011;30487;48.716;9.272;2024-01-16T13:11:30;4.10;;;0.95;;
44766;SDS011;30487;48.716;9.272;2024-01-16T13:14:00;3.33;;;0.90;;
44766;SDS011;30487;48.716;9.272;2024-01-16T13:16:28;2.75;;;0.93;;
44766;SDS011;30487;48.716;9.272;2024-01-16T13:19:00;3.00;;;1.23;;
44766;SDS011;30487;48.716;9.272;2024-01-16T13:21:27;4.43;;;1.25;;
44766;SDS011;30487;48.716;9.272;2024-01-16T13:23:52;4.78;;;1.35;;
44766;SDS011;30487;48.716;9.272;2024-01-16T13:26:18;2.33;;;1.00;;
44766;SDS011;30487;48.716;9.272;2024-01-16T13:28:44;2.92;;;0.90;;
44766;SDS011;30487;48.716;9.272;2024-01-16T13:31:12;3.88;;;1.40;;
44766;SDS011;30487;48.716;9.272;2024-01-16T13:33:37;4.65;;;1.35;;
44766;SDS011;30487;48.716;9.272;2024-01-16T13:36:03;3.83;;;1.10;;
44766;SDS011;30487;48.716;9.272;2024-01-16T13:38:29;3.22;;;1.10;;
44766;SDS011;30487;48.716;9.272;2024-01-16T13:40:55;4.07;;;1.30;;
44766;SDS011;30487;48.716;9.272;2024-01-16T13:43:21;2.17;;;1.10;;
44766;SDS011;30487;48.716;9.272;2024-01-16T13:45:46;3.10;;;1.52;;
44766;SDS011;30487;48.716;9.272;2024-01-16T13:48:15;2.65;;;1.33;;
44766;SDS011;30487;48.716;9.272;2024-01-16T13:50:42;4.05;;;1.65;;
44766;SDS011;30487;48.716;9.272;2024-01-16T13:53:07;2.72;;;1.30;;
44766;SDS011;30487;48.716;9.272;2024-01-16T13:55:33;2.83;;;1.30;;
44766;SDS011;30487;48.716;9.272;2024-01-16T13:57:59;5.80;;;1.52;;
44766;SDS011;30487;48.716;9.272;2024-01-16T14:00:24;5.45;;;1.50;;
44766;SDS011;30487;48.716;9.272;2024-01-16T14:02:50;3.25;;;1.30;;
44766;SDS011;30487;48.716;9.272;2024-01-16T14:05:17;3.03;;;1.35;;
44766;SDS011;30487;48.716;9.272;2024-01-16T14:07:46;3.97;;;1.23;;
44766;SDS011;30487;48.716;9.272;2024-01-16T14:10:15;2.60;;;1.20;;
44766;SDS011;30487;48.716;9.272;2024-01-16T14:12:42;3.97;;;1.45;;
44766;SDS011;30487;48.716;9.272;2024-01-16T14:15:10;3.17;;;1.23;;
44766;SDS011;30487;48.716;9.272;2024-01-16T14:17:47;4.18;;;1.20;;
44766;SDS011;30487;48.716;9.272;2024-01-16T14:20:14;4.18;;;1.30;;
44766;SDS011;30487;48.716;9.272;2024-01-16T14:22:40;3.33;;;1.30;;
44766;SDS011;30487;48.716;9.272;2024-01-16T14:25:10;3.38;;;1.33;;
44766;SDS011;30487;48.716;9.272;2024-01-16T14:27:41;5.07;;;1.65;;
44766;SDS011;30487;48.716;9.272;2024-01-16T14:30:09;4.85;;;1.40;;
44766;SDS011;30487;48.716;9.272;2024-01-16T14:32:39;2.42;;;1.40;;
44766;SDS011;30487;48.716;9.272;2024-01-16T14:35:06;4.47;;;1.60;;
44766;SDS011;30487;48.716;9.272;2024-01-16T14:37:32;3.88;;;1.80;;
44766;SDS011;30487;48.716;9.272;2024-01-16T14:40:02;2.88;;;1.33;;
44766;SDS011;30487;48.716;9.272;2024-01-16T14:42:31;4.93;;;1.27;;
44766;SDS011;30487;48.716;9.272;2024-01-16T14:44:59;4.38;;;1.50;;
44766;SDS011;30487;48.716;9.272;2024-01-16T14:47:24;3.60;;;1.30;;
44766;SDS011;30487;48.716;9.272;2024-01-16T14:49:50;3.50;;;1.23;;
44766;SDS011;30487;48.716;9.272;2024-01-16T14:52:16;2.55;;;1.35;;
44766;SDS011;30487;48.716;9.272;2024-01-16T14:54:43;4.05;;;1.60;;
44766;SDS011;30487;48.716;9.272;2024-01-16T14:57:08;2.70;;;1.45;;
44766;SDS011;30487;48.716;9.272;2024-01-16T14:59:35;3.65;;;1.67;;